Time;durP1;ratioP1;P1;durP2;ratioP2;P2;SDS_P1;SDS_P2;PMS_P1;PMS_P2;Temp;Humidity;BMP_temperature;BMP_pressure;BME280_temperature;BME280_humidity;BME280_pressure;Samples;Min_cycle;Max_cycle;Signal;HPM_P1;HPM_P2
2023/01/04 00:01:10;;;;;;;16.20;3.30;;;;;;;11.41;100.00;99264.69;5056400;28;20055;-82
2023/01/04 00:03:36;;;;;;;12.02;2.00;;;;;;;11.40;100.00;99278.91;5083761;28;20089;-84
2023/01/04 00:06:05;;;;;;;16.85;3.15;;;;;;;11.38;100.00;99267.69;5048809;28;20078;-83
2023/01/04 00:08:31;;;;;;;21.42;4.18;;;;;;;11.38;100.00;99280.09;5066476;28;20039;-83
2023/01/04 00:11:02;;;;;;;22.13;3.28;;;;;;;11.36;100.00;99276.78;5097476;28;20065;-83
2023/01/04 00:13:29;;;;;;;16.13;3.15;;;;;;;11.32;100.00;99268.41;5059219;28;20041;-82
2023/01/04 00:15:55;;;;;;;13.13;2.55;;;;;;;11.33;100.00;99270.06;5082530;28;20031;-82
2023/01/04 00:18:21;;;;;;;14.25;3.08;;;;;;;11.38;100.00;99274.81;5049286;28;20391;-83
2023/01/04 00:20:47;;;;;;;14.57;2.92;;;;;;;11.38;100.00;99277.44;5051795;28;20031;-83
2023/01/04 00:23:12;;;;;;;21.42;3.33;;;;;;;11.38;100.00;99290.69;5065645;28;20036;-83
2023/01/04 00:25:38;;;;;;;16.02;2.78;;;;;;;11.36;100.00;99275.00;5080930;28;20118;-83
2023/01/04 00:28:04;;;;;;;15.90;2.92;;;;;;;11.38;100.00;99288.03;5064820;28;20660;-83
2023/01/04 00:30:30;;;;;;;15.90;3.70;;;;;;;11.36;100.00;99280.28;5064833;28;20122;-82
2023/01/04 00:32:57;;;;;;;22.98;4.22;;;;;;;11.35;100.00;99280.44;5067929;28;20040;-83
2023/01/04 00:35:22;;;;;;;21.45;3.47;;;;;;;11.25;100.00;99275.41;5078690;28;20038;-83
2023/01/04 00:37:49;;;;;;;18.83;3.83;;;;;;;11.22;100.00;99289.81;5097686;28;20085;-83
2023/01/04 00:40:15;;;;;;;27.10;3.72;;;;;;;11.19;100.00;99292.81;5067568;28;20732;-83
2023/01/04 00:42:40;;;;;;;20.48;3.72;;;;;;;11.16;100.00;99303.75;5083452;28;20044;-83
2023/01/04 00:45:06;;;;;;;18.42;3.38;;;;;;;11.13;100.00;99298.81;5046918;28;20158;-83
2023/01/04 00:47:32;;;;;;;16.63;3.17;;;;;;;11.08;100.00;99294.06;5068085;28;20059;-83
2023/01/04 00:49:58;;;;;;;17.02;3.95;;;;;;;11.04;100.00;99287.47;5081040;28;20081;-83
2023/01/04 00:52:24;;;;;;;19.67;3.35;;;;;;;11.01;100.00;99290.44;5067283;28;20753;-83
2023/01/04 00:54:50;;;;;;;27.55;3.22;;;;;;;10.94;100.00;99306.19;5064543;28;20097;-83
2023/01/04 00:57:16;;;;;;;19.95;3.63;;;;;;;10.90;100.00;99303.09;5054029;28;20032;-82
2023/01/04 00:59:42;;;;;;;15.18;2.90;;;;;;;10.89;100.00;99312.00;5068250;28;20504;-83
2023/01/04 01:02:08;;;;;;;15.45;3.20;;;;;;;10.89;100.00;99314.66;5064926;28;20035;-83
2023/01/04 01:04:34;;;;;;;13.35;2.33;;;;;;;10.89;100.00;99303.28;5033273;28;20029;-82
2023/01/04 01:07:01;;;;;;;17.83;2.90;;;;;;;10.91;100.00;99304.72;5080363;28;20115;-82
2023/01/04 01:09:26;;;;;;;28.80;3.55;;;;;;;10.95;100.00;99304.38;5064850;28;20044;-83
2023/01/04 01:11:53;;;;;;;22.95;3.60;;;;;;;10.94;100.00;99287.69;5049264;28;20036;-83
2023/01/04 01:14:22;;;;;;;22.20;3.58;;;;;;;10.96;100.00;99298.13;5046813;28;20044;-83
2023/01/04 01:16:49;;;;;;;18.17;3.60;;;;;;;10.91;100.00;99288.03;5082562;28;20027;-83
2023/01/04 01:19:15;;;;;;;20.10;3.92;;;;;;;10.85;100.00;99292.22;5080236;28;20418;-83
2023/01/04 01:21:41;;;;;;;20.35;3.53;;;;;;;10.84;100.00;99301.16;5067268;28;20035;-83
2023/01/04 01:24:14;;;;;;;21.80;3.25;;;;;;;10.86;100.00;99306.25;5083390;28;20032;-83
2023/01/04 01:26:40;;;;;;;17.63;3.22;;;;;;;10.77;100.00;99306.31;5082624;28;20036;-83
2023/01/04 01:29:06;;;;;;;19.33;3.47;;;;;;;10.73;100.00;99314.75;5061353;28;20525;-83
2023/01/04 01:31:32;;;;;;;21.95;4.18;;;;;;;10.69;100.00;99308.97;5082632;28;20085;-83
2023/01/04 01:33:58;;;;;;;17.30;3.10;;;;;;;10.66;100.00;99299.59;5065479;28;20032;-83
2023/01/04 01:36:25;;;;;;;19.27;3.28;;;;;;;10.66;100.00;99304.03;5050969;28;20032;-84
2023/01/04 01:38:51;;;;;;;23.92;3.25;;;;;;;10.58;100.00;99298.78;5043510;28;20123;-84
2023/01/04 01:41:28;;;;;;;19.48;3.25;;;;;;;10.53;100.00;99300.16;5046440;28;20158;-84
2023/01/04 01:43:58;;;;;;;19.33;3.33;;;;;;;10.47;100.00;99303.47;5051112;28;20024;-83
2023/01/04 01:46:53;;;;;;;22.73;3.58;;;;;;;10.42;100.00;99308.41;5084096;28;20521;-84
2023/01/04 01:49:35;;;;;;;23.05;3.38;;;;;;;10.41;100.00;99312.06;5081414;28;20527;-84
2023/01/04 01:52:05;;;;;;;20.45;3.25;;;;;;;10.41;100.00;99310.25;5052404;28;20028;-84
2023/01/04 01:54:52;;;;;;;21.30;3.42;;;;;;;10.40;100.00;99315.72;5059323;28;20040;-83
2023/01/04 01:57:22;;;;;;;19.30;3.25;;;;;;;10.35;100.00;99310.09;5069247;28;20031;-84
2023/01/04 01:59:50;;;;;;;25.88;4.03;;;;;;;10.30;100.00;99314.06;5051614;28;20031;-83
2023/01/04 02:02:16;;;;;;;22.80;4.47;;;;;;;10.33;100.00;99299.72;5080334;28;20085;-83
2023/01/04 02:04:47;;;;;;;25.98;4.15;;;;;;;10.35;100.00;99320.66;5067972;28;20573;-83
2023/01/04 02:07:17;;;;;;;20.65;3.85;;;;;;;10.38;100.00;99323.78;5068175;28;20124;-84
2023/01/04 02:09:43;;;;;;;29.55;4.93;;;;;;;10.38;100.00;99309.75;5071120;28;20043;-83
2023/01/04 02:12:10;;;;;;;25.73;4.15;;;;;;;10.41;100.00;99330.56;5069765;28;20043;-84
2023/01/04 02:14:37;;;;;;;29.45;4.38;;;;;;;10.42;100.00;99311.88;5069348;28;20476;-84
2023/01/04 02:17:28;;;;;;;25.05;3.58;;;;;;;10.49;100.00;99309.41;5087085;28;20024;-83
2023/01/04 02:20:09;;;;;;;20.42;4.22;;;;;;;10.47;100.00;99300.84;5086448;28;20039;-84
2023/01/04 02:23:05;;;;;;;21.63;4.25;;;;;;;10.47;100.00;99308.75;5066586;28;20123;-84
2023/01/04 02:26:07;;;;;;;27.50;4.72;;;;;;;10.37;100.00;99303.66;5063819;28;20113;-82
2023/01/04 02:28:52;;;;;;;25.40;3.67;;;;;;;10.35;100.00;99310.09;5071856;28;20628;-83
2023/01/04 02:31:46;;;;;;;26.15;4.25;;;;;;;10.36;100.00;99325.78;5069829;28;20028;-84
2023/01/04 02:34:25;;;;;;;21.02;3.58;;;;;;;10.36;100.00;99325.78;5064814;28;20039;-83
2023/01/04 02:37:17;;;;;;;23.45;4.50;;;;;;;10.38;100.00;99323.78;5068180;28;20058;-83
2023/01/04 02:39:56;;;;;;;21.70;4.07;;;;;;;10.40;100.00;99335.00;5083836;28;20029;-84
2023/01/04 02:45:38;;;;;;;24.80;3.95;;;;;;;10.40;100.00;99342.13;5101951;28;20028;-84
2023/01/04 02:50:55;;;;;;;;;;;;;;;10.40;100.00;99344.75;5082601;28;20044;-84
2023/01/04 02:53:37;;;;;;;23.85;3.95;;;;;;;10.49;100.00;99350.84;5084001;28;19959;-83
2023/01/04 02:56:34;;;;;;;24.17;4.30;;;;;;;10.49;100.00;99358.78;5088253;28;20082;-84
2023/01/04 02:59:24;;;;;;;24.63;5.03;;;;;;;10.49;100.00;99356.97;5086635;28;20527;-84
2023/01/04 03:07:36;;;;;;;34.70;5.80;;;;;;;10.51;100.00;99372.66;5081595;28;20028;-84
2023/01/04 03:10:09;;;;;;;28.27;4.63;;;;;;;10.48;100.00;99355.31;5070115;28;20045;-83
2023/01/04 03:12:49;;;;;;;21.30;3.80;;;;;;;10.58;100.00;99383.34;5086228;28;20043;-83
2023/01/04 03:15:28;;;;;;;29.27;4.80;;;;;;;10.63;100.00;99381.03;5068884;28;20076;-84
2023/01/04 03:17:58;;;;;;;26.55;4.90;;;;;;;10.66;100.00;99389.44;5079536;28;20585;-83
2023/01/04 03:20:30;;;;;;;27.88;4.68;;;;;;;10.66;100.00;99388.59;5071957;28;20028;-83
2023/01/04 03:37:20;;;;;;;23.65;3.63;;;;;;;10.63;100.00;99402.16;5067056;28;20386;-83
2023/01/04 03:49:14;;;;;;;28.55;5.15;;;;;;;10.58;100.00;99421.16;5071131;28;20377;-83
2023/01/04 03:51:42;;;;;;;26.75;4.68;;;;;;;10.56;100.00;99411.78;5091245;28;20640;-82
2023/01/04 03:54:38;;;;;;;26.10;4.00;;;;;;;10.56;100.00;99417.06;5064552;28;20078;-83
2023/01/04 03:57:06;;;;;;;24.15;4.70;;;;;;;10.53;100.00;99391.78;5088837;28;20027;-83
2023/01/04 03:59:41;;;;;;;26.70;4.22;;;;;;;10.49;100.00;99401.88;5087490;28;20348;-83
2023/01/04 04:02:12;;;;;;;25.38;3.88;;;;;;;10.52;100.00;99406.00;5086969;28;20023;-83
2023/01/04 04:10:09;;;;;;;25.85;4.63;;;;;;;10.46;100.00;99415.44;5099418;28;20036;-83
2023/01/04 04:12:34;;;;;;;30.13;4.82;;;;;;;10.48;100.00;99415.28;5055589;28;20807;-82
2023/01/04 04:15:01;;;;;;;21.58;3.90;;;;;;;10.49;100.00;99416.91;5069395;28;20066;-83
2023/01/04 04:17:27;;;;;;;30.85;5.07;;;;;;;10.43;100.00;99413.09;5090058;28;20082;-83
2023/01/04 04:19:53;;;;;;;28.48;4.70;;;;;;;10.41;100.00;99423.84;5071673;28;20378;-83
2023/01/04 04:22:18;;;;;;;36.65;4.88;;;;;;;10.42;100.00;99416.72;5090541;28;20043;-83
2023/01/04 04:24:44;;;;;;;27.48;6.20;;;;;;;10.41;100.00;99417.72;5056302;28;20051;-83
2023/01/04 04:27:10;;;;;;;28.75;5.05;;;;;;;10.40;100.00;99424.00;5071326;28;20205;-83
2023/01/04 04:29:35;;;;;;;32.88;5.45;;;;;;;10.35;100.00;99424.47;5083898;28;20081;-82
2023/01/04 04:32:01;;;;;;;35.83;5.45;;;;;;;10.36;100.00;99426.16;5071748;28;20429;-83
2023/01/04 04:34:27;;;;;;;37.63;6.85;;;;;;;10.36;100.00;99430.59;5084413;28;20028;-83
2023/01/04 04:36:53;;;;;;;30.05;5.90;;;;;;;10.33;100.00;99425.66;5084578;28;20138;-82
2023/01/04 04:39:19;;;;;;;27.60;4.90;;;;;;;10.32;100.00;99427.47;5056166;28;20439;-83
2023/01/04 04:41:45;;;;;;;28.20;5.20;;;;;;;10.27;100.00;99435.91;5070956;28;20494;-82
2023/01/04 04:44:14;;;;;;;38.15;5.65;;;;;;;10.32;100.00;99442.50;5063379;28;20028;-83
2023/01/04 04:46:41;;;;;;;26.85;4.72;;;;;;;10.29;100.00;99444.47;5068077;28;20601;-84
2023/01/04 04:49:08;;;;;;;32.13;5.85;;;;;;;10.28;100.00;99448.13;5086646;28;20028;-83
2023/01/04 04:51:34;;;;;;;32.67;4.68;;;;;;;10.26;100.00;99436.91;5066603;28;20028;-83
2023/01/04 04:54:05;;;;;;;28.75;4.93;;;;;;;10.32;100.00;99451.22;5061791;28;20044;-83
2023/01/04 04:56:31;;;;;;;28.48;5.90;;;;;;;10.33;100.00;99463.47;5069839;28;20028;-83
2023/01/04 04:58:57;;;;;;;31.95;6.10;;;;;;;10.32;100.00;99453.88;5072160;28;20116;-84
2023/01/04 05:01:23;;;;;;;24.95;5.05;;;;;;;10.31;100.00;99449.59;5068163;28;20062;-83
2023/01/04 05:03:49;;;;;;;29.77;3.97;;;;;;;10.29;100.00;99460.34;5070635;28;20028;-83
2023/01/04 05:06:16;;;;;;;22.30;4.57;;;;;;;10.31;100.00;99465.44;5067264;28;20032;-83
2023/01/04 05:08:42;;;;;;;27.25;4.70;;;;;;;10.30;100.00;99469.91;5052882;28;20020;-83
2023/01/04 05:11:09;;;;;;;24.67;5.07;;;;;;;10.30;100.00;99459.31;5065946;28;20032;-83
2023/01/04 05:13:35;;;;;;;28.60;5.18;;;;;;;10.28;100.00;99478.97;5089943;28;20108;-83
2023/01/04 05:16:03;;;;;;;19.65;4.32;;;;;;;10.25;100.00;99488.06;5071502;28;20111;-83
2023/01/04 05:18:29;;;;;;;28.10;4.82;;;;;;;10.23;100.00;99502.41;5075175;28;20040;-83
2023/01/04 05:20:55;;;;;;;33.85;5.38;;;;;;;10.17;100.00;99488.06;5088786;28;20044;-84
2023/01/04 05:23:22;;;;;;;35.25;5.38;;;;;;;10.13;100.00;99494.69;5059857;28;20051;-83
2023/01/04 05:25:53;;;;;;;30.33;4.95;;;;;;;10.11;100.00;99488.75;5053975;28;20463;-83
2023/01/04 05:28:19;;;;;;;21.27;4.82;;;;;;;10.07;100.00;99506.72;5091581;28;20031;-83
2023/01/04 05:30:52;;;;;;;20.63;5.22;;;;;;;10.12;100.00;99498.28;5092264;28;20357;-83
2023/01/04 05:33:18;;;;;;;21.80;3.53;;;;;;;10.13;100.00;99499.97;5085193;28;20031;-82
2023/01/04 05:35:45;;;;;;;26.08;4.57;;;;;;;10.15;100.00;99512.00;5092781;28;20028;-83
2023/01/04 05:38:10;;;;;;;22.90;4.22;;;;;;;10.13;100.00;99523.72;5076293;28;20042;-84
2023/01/04 05:40:36;;;;;;;29.92;5.15;;;;;;;10.18;100.00;99518.75;5069779;28;20025;-83
2023/01/04 05:43:05;;;;;;;34.60;4.40;;;;;;;10.17;100.00;99511.84;5053606;28;20127;-83
2023/01/04 05:45:31;;;;;;;28.15;4.40;;;;;;;10.11;100.00;99525.69;5046086;28;20043;-83
2023/01/04 05:47:57;;;;;;;22.17;4.38;;;;;;;10.10;100.00;99534.59;5076146;28;20043;-83
2023/01/04 05:50:23;;;;;;;28.23;4.57;;;;;;;10.08;100.00;99529.47;5069229;28;20070;-83
2023/01/04 05:52:50;;;;;;;30.55;6.63;;;;;;;10.08;100.00;99520.75;5090431;28;20028;-83
2023/01/04 05:55:16;;;;;;;33.42;5.68;;;;;;;10.07;100.00;99524.34;5074491;28;20483;-83
2023/01/04 05:57:42;;;;;;;27.90;4.43;;;;;;;10.05;100.00;99517.44;5056405;28;20081;-83
2023/01/04 06:00:09;;;;;;;25.48;5.18;;;;;;;10.08;100.00;99534.75;5067242;28;20036;-83
2023/01/04 06:02:39;;;;;;;30.92;4.88;;;;;;;10.07;100.00;99532.28;5091728;28;20103;-83
2023/01/04 06:05:06;;;;;;;35.65;5.93;;;;;;;10.05;100.00;99533.28;5088145;28;20522;-83
2023/01/04 06:07:32;;;;;;;29.50;4.93;;;;;;;10.03;100.00;99540.53;5088597;28;20110;-83
2023/01/04 06:09:58;;;;;;;29.92;4.95;;;;;;;10.01;100.00;99533.78;5074477;28;20071;-83
2023/01/04 06:12:25;;;;;;;38.97;5.68;;;;;;;9.97;100.00;99535.09;5070243;28;20027;-83
2023/01/04 06:14:50;;;;;;;39.63;5.18;;;;;;;9.95;100.00;99548.47;5069793;28;20039;-82
2023/01/04 06:17:16;;;;;;;38.45;6.03;;;;;;;9.95;100.00;99551.09;5091776;28;20035;-83
2023/01/04 06:19:42;;;;;;;39.45;6.28;;;;;;;9.93;100.00;99555.72;5076023;28;20107;-82
2023/01/04 06:22:08;;;;;;;33.78;6.20;;;;;;;9.95;100.00;99553.75;5090419;28;20024;-83
2023/01/04 06:24:34;;;;;;;32.55;4.65;;;;;;;9.92;100.00;99562.78;5092878;28;20524;-83
2023/01/04 06:27:01;;;;;;;34.30;7.05;;;;;;;9.87;100.00;99564.28;5075114;28;20066;-82
2023/01/04 06:29:30;;;;;;;28.65;4.50;;;;;;;9.81;100.00;99573.66;5091548;28;20356;-82
2023/01/04 06:31:56;;;;;;;32.50;5.50;;;;;;;9.77;100.00;99578.44;5091737;28;20057;-83
2023/01/04 06:34:21;;;;;;;36.33;4.45;;;;;;;9.74;100.00;99575.28;5084867;28;20067;-82
2023/01/04 06:36:47;;;;;;;36.50;6.30;;;;;;;9.75;100.00;99582.22;5073802;28;20020;-83
2023/01/04 06:39:13;;;;;;;29.73;4.60;;;;;;;9.78;100.00;99579.25;5058078;28;20036;-82
2023/01/04 06:41:39;;;;;;;24.08;5.22;;;;;;;9.79;100.00;99573.81;5074708;28;20066;-82
2023/01/04 06:44:05;;;;;;;27.40;5.20;;;;;;;9.84;100.00;99575.16;5074618;28;20039;-83
2023/01/04 06:46:30;;;;;;;25.50;4.97;;;;;;;9.86;100.00;99571.34;5057611;28;20044;-82
2023/01/04 06:48:57;;;;;;;29.55;4.15;;;;;;;9.91;100.00;99578.78;5091294;28;20032;-82
2023/01/04 06:51:23;;;;;;;31.55;4.72;;;;;;;9.93;100.00;99582.94;5088610;28;20093;-82
2023/01/04 06:53:48;;;;;;;31.02;4.63;;;;;;;9.97;100.00;99578.13;5074217;28;20032;-83
2023/01/04 06:56:14;;;;;;;30.20;4.13;;;;;;;9.96;100.00;99565.94;5073942;28;21875;-83
2023/01/04 06:58:40;;;;;;;25.10;3.83;;;;;;;9.96;100.00;99571.22;5069821;28;20492;-83
2023/01/04 07:01:07;;;;;;;41.97;6.30;;;;;;;10.02;100.00;99562.66;5083161;28;20038;-82
2023/01/04 07:03:33;;;;;;;29.95;4.57;;;;;;;10.00;100.00;99577.81;5081464;28;20078;-83
2023/01/04 07:06:02;;;;;;;41.33;6.25;;;;;;;9.99;100.00;99576.19;5089918;28;20028;-82
2023/01/04 07:08:28;;;;;;;30.67;5.32;;;;;;;9.97;100.00;99575.50;5048075;28;20506;-83
2023/01/04 07:10:54;;;;;;;28.65;4.53;;;;;;;9.97;100.00;99574.69;5083995;28;20040;-82
2023/01/04 07:13:20;;;;;;;28.70;4.28;;;;;;;9.97;100.00;99593.19;5073447;28;20089;-82
2023/01/04 07:15:46;;;;;;;38.95;7.10;;;;;;;9.95;100.00;99584.59;5067043;28;20475;-83
2023/01/04 07:18:12;;;;;;;34.45;6.45;;;;;;;9.93;100.00;99592.66;5090179;28;20483;-82
2023/01/04 07:20:38;;;;;;;47.80;5.82;;;;;;;9.95;100.00;99595.13;5074274;28;20024;-83
2023/01/04 07:23:04;;;;;;;41.95;6.05;;;;;;;9.91;100.00;99599.91;5071402;28;20418;-82
2023/01/04 07:25:30;;;;;;;30.45;5.50;;;;;;;9.93;100.00;99597.94;5071673;28;20035;-82
2023/01/04 07:27:56;;;;;;;31.15;5.47;;;;;;;9.94;100.00;99591.66;5088417;28;20020;-82
2023/01/04 07:30:22;;;;;;;34.97;6.05;;;;;;;9.94;100.00;99591.66;5072558;28;20031;-82
2023/01/04 07:32:50;;;;;;;31.05;5.25;;;;;;;9.99;100.00;99588.53;5086805;28;20039;-85
2023/01/04 07:35:16;;;;;;;27.42;4.63;;;;;;;9.97;100.00;99583.41;5055701;28;20035;-83
2023/01/04 07:37:42;;;;;;;17.10;3.47;;;;;;;10.01;100.00;99591.84;5069033;28;20035;-82
2023/01/04 07:40:10;;;;;;;22.23;4.40;;;;;;;10.02;100.00;99586.41;5066153;28;20093;-83
2023/01/04 07:42:35;;;;;;;26.13;3.78;;;;;;;10.09;100.00;99583.94;5087172;28;20038;-82
2023/01/04 07:45:02;;;;;;;15.80;2.70;;;;;;;10.14;100.00;99609.88;5089508;28;20024;-84
2023/01/04 07:47:28;;;;;;;12.85;3.10;;;;;;;10.15;100.00;99609.72;5067762;28;20040;-84
2023/01/04 07:49:54;;;;;;;14.93;3.00;;;;;;;10.22;100.00;99619.63;5088720;28;20085;-84
2023/01/04 07:52:20;;;;;;;27.17;3.90;;;;;;;10.22;100.00;99624.91;5080369;28;20028;-84
2023/01/04 07:54:46;;;;;;;21.95;3.08;;;;;;;10.17;100.00;99612.19;5087879;28;20480;-84
2023/01/04 07:57:12;;;;;;;36.33;4.00;;;;;;;10.18;100.00;99637.59;5070784;28;20032;-83
2023/01/04 07:59:37;;;;;;;21.73;3.70;;;;;;;10.16;100.00;99643.03;5052329;28;20042;-84
2023/01/04 08:02:03;;;;;;;21.88;3.17;;;;;;;10.13;100.00;99651.28;5078296;28;20280;-84
2023/01/04 08:04:29;;;;;;;22.05;3.55;;;;;;;10.10;100.00;99653.41;5085643;28;20031;-84
2023/01/04 08:06:55;;;;;;;20.92;4.13;;;;;;;10.06;100.00;99639.72;5071946;28;20032;-84
2023/01/04 08:09:20;;;;;;;25.70;3.88;;;;;;;10.04;100.00;99655.72;5067067;28;20039;-84
2023/01/04 08:11:46;;;;;;;19.92;3.80;;;;;;;10.03;100.00;99651.41;5089209;28;20054;-83
2023/01/04 08:14:12;;;;;;;24.88;4.53;;;;;;;10.03;100.00;99655.91;5085759;28;20024;-85
2023/01/04 08:16:40;;;;;;;17.15;3.15;;;;;;;10.04;100.00;99662.81;5089382;28;20425;-84
2023/01/04 08:19:11;;;;;;;21.55;2.92;;;;;;;10.04;100.00;99658.38;5061989;28;20028;-84
2023/01/04 08:21:37;;;;;;;22.50;4.45;;;;;;;10.00;100.00;99672.06;5089915;28;20024;-84
2023/01/04 08:24:04;;;;;;;18.17;3.05;;;;;;;9.96;100.00;99674.19;5067924;28;20035;-85
2023/01/04 08:26:31;;;;;;;19.80;2.83;;;;;;;9.97;100.00;99670.53;5087270;28;20051;-84
2023/01/04 08:28:57;;;;;;;22.90;3.60;;;;;;;9.94;100.00;99678.78;5088137;28;20482;-84
2023/01/04 08:31:28;;;;;;;21.80;3.45;;;;;;;9.93;100.00;99680.63;5071953;28;20032;-84
2023/01/04 08:33:54;;;;;;;17.00;2.80;;;;;;;9.92;100.00;99678.13;5065735;28;20119;-84
2023/01/04 08:36:23;;;;;;;20.02;3.45;;;;;;;9.90;100.00;99688.00;5064449;28;20604;-85
2023/01/04 08:38:51;;;;;;;19.23;3.28;;;;;;;9.92;100.00;99678.13;5085179;28;20089;-83
2023/01/04 08:41:17;;;;;;;22.45;3.53;;;;;;;9.90;100.00;99666.91;5084651;28;20320;-85
2023/01/04 08:43:44;;;;;;;21.55;3.55;;;;;;;9.94;100.00;99676.13;5086509;28;20770;-85
2023/01/04 08:46:11;;;;;;;30.75;4.13;;;;;;;9.91;100.00;99674.66;5085440;28;20028;-84
2023/01/04 08:48:38;;;;;;;33.03;5.38;;;;;;;9.92;100.00;99684.22;5068759;28;20032;-84
2023/01/04 08:51:13;;;;;;;23.05;4.05;;;;;;;9.95;100.00;99700.75;5085214;28;20024;-84
2023/01/04 08:53:39;;;;;;;26.88;4.70;;;;;;;9.92;100.00;99710.63;5068456;28;20032;-83
2023/01/04 08:56:06;;;;;;;22.05;3.85;;;;;;;9.95;100.00;99727.97;5083484;28;20118;-84
2023/01/04 08:58:34;;;;;;;14.10;2.78;;;;;;;9.92;100.00;99707.97;5070929;28;20046;-83
2023/01/04 09:01:02;;;;;;;22.70;4.22;;;;;;;9.90;100.00;99731.09;5086694;28;20031;-84
2023/01/04 09:03:28;;;;;;;19.83;3.08;;;;;;;9.84;100.00;99744.09;5082267;28;20075;-84
2023/01/04 09:06:10;;;;;;;21.42;2.65;;;;;;;9.75;100.00;99745.81;5068070;28;20027;-84
2023/01/04 09:08:38;;;;;;;11.65;2.10;;;;;;;9.66;100.00;99759.00;5052036;28;20024;-84
2023/01/04 09:11:15;;;;;;;15.25;2.45;;;;;;;9.60;100.00;99761.41;5062576;28;20131;-83
2023/01/04 09:13:42;;;;;;;19.00;3.63;;;;;;;9.54;100.00;99765.50;5079846;28;20036;-83
2023/01/04 09:16:11;;;;;;;21.23;3.47;;;;;;;9.55;100.00;99765.38;5084890;28;20031;-84
2023/01/04 09:18:38;;;;;;;16.55;3.17;;;;;;;9.51;100.00;99774.53;5087885;28;20536;-83
2023/01/04 09:21:08;;;;;;;24.75;3.08;;;;;;;9.52;100.00;99770.09;5071258;28;20028;-83
2023/01/04 09:23:35;;;;;;;22.30;2.92;;;;;;;9.50;100.00;99769.44;5085342;28;20052;-83
2023/01/04 09:26:15;;;;;;;22.33;3.88;;;;;;;9.52;100.00;99768.28;5069352;28;20127;-83
2023/01/04 09:28:42;;;;;;;19.23;3.10;;;;;;;9.49;100.00;99778.34;5068224;28;20044;-83
2023/01/04 09:31:16;;;;;;;24.40;3.30;;;;;;;9.52;100.00;99773.56;5069057;28;20028;-83
2023/01/04 09:33:43;;;;;;;20.40;3.35;;;;;;;9.51;100.00;99768.44;5053685;28;20119;-83
2023/01/04 09:36:12;;;;;;;23.42;3.05;;;;;;;9.52;100.00;99768.28;5088053;28;20495;-83
2023/01/04 09:38:37;;;;;;;18.10;3.13;;;;;;;9.53;100.00;99763.84;5051069;28;20038;-83
2023/01/04 09:41:20;;;;;;;34.47;3.58;;;;;;;9.59;100.00;99767.69;5088408;28;20127;-82
2023/01/04 09:43:55;;;;;;;31.73;3.63;;;;;;;9.61;100.00;99773.63;5082118;28;20032;-83
2023/01/04 09:46:37;;;;;;;22.98;3.72;;;;;;;9.59;100.00;99781.69;5079490;28;20058;-83
2023/01/04 09:49:28;;;;;;;27.30;3.97;;;;;;;9.62;100.00;99793.75;5060532;28;20406;-83
2023/01/04 09:52:04;;;;;;;30.75;5.32;;;;;;;9.62;100.00;99777.94;5087633;28;20151;-83
2023/01/04 09:54:44;;;;;;;36.13;5.88;;;;;;;9.72;100.00;99781.28;5056015;28;20097;-84
2023/01/04 09:57:23;;;;;;;25.98;4.85;;;;;;;9.77;100.00;99776.38;5077054;28;20101;-83
2023/01/04 09:59:54;;;;;;;24.45;4.18;;;;;;;9.83;100.00;99769.63;5059038;28;20039;-83
2023/01/04 10:02:28;;;;;;;34.78;5.10;;;;;;;9.87;100.00;99765.72;5085248;28;20028;-83
2023/01/04 10:04:57;;;;;;;30.23;4.93;;;;;;;9.89;100.00;99773.47;5089295;28;20031;-83
2023/01/04 10:07:23;;;;;;;27.95;4.28;;;;;;;9.93;100.00;99780.94;5091545;28;20020;-84
2023/01/04 10:09:48;;;;;;;30.40;4.45;;;;;;;9.94;100.00;99781.72;5069837;28;20045;-83
2023/01/04 10:12:32;;;;;;;23.77;4.10;;;;;;;9.99;100.00;99784.75;5052233;28;20101;-83
2023/01/04 10:15:17;;;;;;;31.23;5.13;;;;;;;10.01;100.00;99801.25;5085941;28;20024;-84
2023/01/04 10:17:45;;;;;;;23.60;5.18;;;;;;;9.99;100.00;99797.09;5069272;28;20093;-83
2023/01/04 10:20:56;;;;;;;26.02;4.88;;;;;;;10.00;100.00;99773.19;5057549;28;20054;-84
2023/01/04 10:23:41;;;;;;;22.73;4.75;;;;;;;9.97;100.00;99802.53;5084710;28;20031;-84
2023/01/04 10:26:17;;;;;;;26.23;3.75;;;;;;;9.98;100.00;99816.56;5052151;28;20074;-84
2023/01/04 10:29:02;;;;;;;;;;;;;;;9.91;100.00;99835.69;5054045;28;20533;-84
2023/01/04 10:31:38;;;;;;;25.85;3.88;;;;;;;9.97;100.00;99843.97;5045264;28;19996;-84
2023/01/04 10:34:23;;;;;;;19.58;3.80;;;;;;;9.99;100.00;99842.00;5086682;28;20023;-84
2023/01/04 10:36:52;;;;;;;29.88;4.10;;;;;;;9.99;100.00;99853.38;5086999;28;20031;-84
2023/01/04 10:39:23;;;;;;;26.98;5.05;;;;;;;10.03;100.00;99862.63;5083800;28;20051;-83
2023/01/04 10:42:09;;;;;;;23.05;3.63;;;;;;;10.00;100.00;99849.75;5063275;28;20020;-83
2023/01/04 10:45:12;;;;;;;20.58;4.03;;;;;;;9.96;100.00;99858.97;5084647;28;20032;-84
2023/01/04 10:48:01;;;;;;;21.33;3.80;;;;;;;9.99;100.00;99874.50;5081311;28;20040;-84
2023/01/04 10:50:37;;;;;;;23.05;4.13;;;;;;;10.05;100.00;99883.59;5065543;28;20032;-84
2023/01/04 10:53:02;;;;;;;;;;;;;;;9.97;100.00;99884.38;5069768;28;20380;-83
2023/01/04 10:55:52;;;;;;;24.77;4.00;;;;;;;10.02;100.00;99884.75;5088518;28;19908;-84
2023/01/04 10:58:28;;;;;;;21.30;3.50;;;;;;;10.00;100.00;99894.63;5085718;28;20032;-84
2023/01/04 11:01:02;;;;;;;27.10;4.97;;;;;;;10.00;100.00;99896.47;5072564;28;20028;-84
2023/01/04 11:03:37;;;;;;;23.00;4.30;;;;;;;10.06;100.00;99909.06;5053375;28;20140;-84
2023/01/04 11:06:16;;;;;;;22.25;3.38;;;;;;;10.10;100.00;99889.25;5088255;28;20069;-84
2023/01/04 11:09:02;;;;;;;23.17;5.13;;;;;;;10.16;100.00;99899.19;5071494;28;20032;-84
2023/01/04 11:11:41;;;;;;;23.38;3.70;;;;;;;10.22;100.00;99895.13;5065315;28;20581;-84
2023/01/04 11:14:09;;;;;;;26.25;3.83;;;;;;;10.28;100.00;99893.66;5063467;28;20036;-84
2023/01/04 11:16:41;;;;;;;20.13;4.63;;;;;;;10.28;100.00;99893.66;5087887;28;20073;-83
2023/01/04 11:19:09;;;;;;;16.27;2.78;;;;;;;10.31;100.00;99890.72;5070558;28;20027;-84
2023/01/04 11:22:10;;;;;;;15.50;3.33;;;;;;;10.33;100.00;99898.47;5055064;28;20020;-84
2023/01/04 11:24:41;;;;;;;19.50;3.08;;;;;;;10.36;100.00;99895.53;5065564;28;20044;-84
2023/01/04 11:27:15;;;;;;;18.80;3.42;;;;;;;10.45;100.00;99899.88;5089006;28;20031;-84
2023/01/04 11:29:49;;;;;;;20.67;3.58;;;;;;;10.51;100.00;99901.91;5084605;28;20165;-85
2023/01/04 11:32:19;;;;;;;20.42;3.13;;;;;;;10.53;100.00;99892.03;5071293;28;20039;-84
2023/01/04 11:34:52;;;;;;;18.60;3.67;;;;;;;10.56;100.00;99887.41;5076156;28;20037;-84
2023/01/04 11:37:26;;;;;;;20.73;3.13;;;;;;;10.53;100.00;99905.22;5065122;28;20415;-85
2023/01/04 11:40:09;;;;;;;28.27;3.53;;;;;;;10.50;100.00;99905.53;5080982;28;20032;-84
2023/01/04 11:42:35;;;;;;;27.38;4.18;;;;;;;10.45;100.00;99907.78;5069883;28;20090;-83
2023/01/04 11:45:01;;;;;;;29.38;4.57;;;;;;;10.46;100.00;99909.50;5079363;28;20040;-85
2023/01/04 11:47:27;;;;;;;26.98;4.85;;;;;;;10.42;100.00;99901.03;5008203;28;20460;-84
2023/01/04 11:49:54;;;;;;;33.05;4.53;;;;;;;10.45;100.00;99906.97;5001183;28;20040;-84
2023/01/04 11:52:26;;;;;;;19.42;3.60;;;;;;;10.45;100.00;99907.78;5064004;28;20028;-84
2023/01/04 11:54:52;;;;;;;23.33;3.65;;;;;;;10.39;100.00;99905.78;5078614;28;20032;-82
2023/01/04 11:57:19;;;;;;;23.88;3.80;;;;;;;10.42;100.00;99919.50;5066902;28;20463;-83
2023/01/04 12:00:12;;;;;;;29.23;3.92;;;;;;;10.42;100.00;99913.38;5087855;28;20046;-82
2023/01/04 12:02:42;;;;;;;26.40;4.50;;;;;;;10.42;100.00;99914.22;5082218;28;20085;-82
2023/01/04 12:05:24;;;;;;;22.17;3.53;;;;;;;10.39;100.00;99916.34;5078845;28;20020;-82
2023/01/04 12:07:49;;;;;;;20.48;3.40;;;;;;;10.32;100.00;99923.25;5067620;28;20081;-83
2023/01/04 12:10:25;;;;;;;20.90;3.45;;;;;;;10.35;100.00;99928.22;5047414;28;20715;-82
2023/01/04 12:12:52;;;;;;;;;;;;;;;10.26;100.00;99909.66;5031847;28;20385;-81
2023/01/04 12:15:31;;;;;;;29.85;3.75;;;;;;;10.33;100.00;99903.75;5065595;28;19955;-81
2023/01/04 12:18:05;;;;;;;13.52;2.50;;;;;;;10.30;100.00;99918.94;5063821;28;20055;-82